Time;durP1;ratioP1;P1;durP2;ratioP2;P2;SDS_P1;SDS_P2;PMS_P1;PMS_P2;Temp;Humidity;BMP_temperature;BMP_pressure;BME280_temperature;BME280_humidity;BME280_pressure;Samples;Min_cycle;Max_cycle;Signal;HPM_P1;HPM_P2
2022/03/05 00:02:15;;;;;;;;;;;102.80;2099.20;;;;;;5036371;28;20297;-79
2022/03/05 00:04:41;;;;;;;;;;;102.90;2099.20;;;;;;5036491;28;19923;-79
2022/03/05 00:07:07;;;;;;;;;;;102.80;2099.20;;;;;;5037368;28;19905;-79
2022/03/05 00:09:32;;;;;;;;;;;102.80;2099.20;;;;;;5041057;28;19915;-78
2022/03/05 00:11:58;;;;;;;;;;;102.80;2099.20;;;;;;5044696;28;19925;-78
2022/03/05 00:14:25;;;;;;;;;;;102.80;2099.20;;;;;;5046869;28;19913;-78
2022/03/05 00:16:50;;;;;;;;;;;102.80;2099.20;;;;;;5046874;28;19904;-79
2022/03/05 00:19:16;;;;;;;;;;;102.80;2099.20;;;;;;5045737;28;19913;-79
2022/03/05 00:21:42;;;;;;;;;;;102.80;2099.20;;;;;;5045789;28;19904;-79
2022/03/05 00:24:07;;;;;;;;;;;102.70;2099.20;;;;;;5046242;28;19905;-78
2022/03/05 00:26:33;;;;;;;;;;;102.60;2099.20;;;;;;5047722;28;20274;-79
2022/03/05 00:28:59;;;;;;;;;;;102.60;2099.20;;;;;;5046102;28;19909;-78
2022/03/05 00:31:24;;;;;;;;;;;102.40;2099.20;;;;;;5045143;28;20117;-78
2022/03/05 00:33:50;;;;;;;;;;;77.60;2124.80;;;;;;5046261;28;19905;-80
2022/03/05 00:36:15;;;;;;;;;;;77.50;2150.40;;;;;;5044616;28;19905;-79
2022/03/05 00:38:41;;;;;;;;;;;77.40;2176.00;;;;;;5047570;28;19912;-80
2022/03/05 00:41:08;;;;;;;;;;;77.40;2176.00;;;;;;5044831;28;19915;-79
2022/03/05 00:43:34;;;;;;;;;;;77.40;2176.00;;;;;;5045976;28;19909;-79
2022/03/05 00:46:00;;;;;;;;;;;77.40;2176.00;;;;;;5045807;28;19905;-81
2022/03/05 00:48:26;;;;;;;;;;;77.30;2201.60;;;;;;5045095;28;19908;-79
2022/03/05 00:50:51;;;;;;;;;;;77.30;2201.60;;;;;;5047206;28;19913;-86
2022/03/05 00:53:18;;;;;;;;;;;77.50;2176.00;;;;;;5040813;28;20273;-79
2022/03/05 00:55:44;;;;;;;;;;;77.70;2150.40;;;;;;5044747;28;20377;-79
2022/03/05 00:58:09;;;;;;;;;;;102.40;2124.80;;;;;;5044297;28;20004;-79
2022/03/05 01:00:35;;;;;;;;;;;102.40;2124.80;;;;;;5046866;28;20278;-80
2022/03/05 01:03:00;;;;;;;;;;;102.40;2124.80;;;;;;5044051;28;19952;-79
2022/03/05 01:05:26;;;;;;;;;;;77.60;2124.80;;;;;;5045436;28;20362;-79
2022/03/05 01:07:52;;;;;;;;;;;77.70;2124.80;;;;;;5046840;28;19905;-79
2022/03/05 01:10:17;;;;;;;;;;;77.60;2124.80;;;;;;5044779;28;19917;-79
2022/03/05 01:12:43;;;;;;;;;;;102.40;2124.80;;;;;;5045847;28;19912;-79
2022/03/05 01:15:09;;;;;;;;;;;102.40;2124.80;;;;;;5045401;28;19948;-79
2022/03/05 01:17:34;;;;;;;;;;;102.40;2124.80;;;;;;5044650;28;19913;-79
2022/03/05 01:20:00;;;;;;;;;;;102.40;2124.80;;;;;;5044600;28;19912;-79
2022/03/05 01:22:25;;;;;;;;;;;102.50;2099.20;;;;;;5047425;28;19931;-78
2022/03/05 01:24:51;;;;;;;;;;;102.40;2099.20;;;;;;5055982;28;19999;-79
2022/03/05 01:27:17;;;;;;;;;;;102.40;2099.20;;;;;;5055900;28;19966;-78
2022/03/05 01:29:42;;;;;;;;;;;102.50;2099.20;;;;;;5054817;28;19911;-78
2022/03/05 01:32:08;;;;;;;;;;;102.50;2099.20;;;;;;5054483;28;19917;-79
2022/03/05 01:34:33;;;;;;;;;;;102.50;2099.20;;;;;;5054313;28;20005;-79
2022/03/05 01:36:59;;;;;;;;;;;102.50;2073.60;;;;;;5054575;28;19904;-78
2022/03/05 01:39:25;;;;;;;;;;;102.50;2099.20;;;;;;5054436;28;19912;-78
2022/03/05 01:41:53;;;;;;;;;;;102.50;2073.60;;;;;;5053956;28;20367;-77
2022/03/05 01:44:20;;;;;;;;;;;102.50;2073.60;;;;;;5053691;28;20420;-78
2022/03/05 01:46:45;;;;;;;;;;;102.50;2073.60;;;;;;5053748;28;19931;-78
2022/03/05 01:49:12;;;;;;;;;;;102.60;2073.60;;;;;;5055574;28;20366;-78
2022/03/05 01:51:37;;;;;;;;;;;102.60;2073.60;;;;;;5054146;28;19912;-78
2022/03/05 01:54:03;;;;;;;;;;;102.60;2073.60;;;;;;5054227;28;20347;-78
2022/03/05 01:56:30;;;;;;;;;;;102.60;2073.60;;;;;;5054107;28;19904;-77
2022/03/05 01:58:55;;;;;;;;;;;102.50;2073.60;;;;;;5053733;28;19944;-77
2022/03/05 02:01:22;;;;;;;;;;;77.50;2073.60;;;;;;5054133;28;19951;-77
2022/03/05 02:03:48;;;;;;;;;;;102.40;2073.60;;;;;;5055117;28;20369;-79
2022/03/05 02:06:14;;;;;;;;;;;102.40;2073.60;;;;;;5054307;28;19905;-78
2022/03/05 02:08:39;;;;;;;;;;;102.40;2073.60;;;;;;5055059;28;19911;-78
2022/03/05 02:11:06;;;;;;;;;;;102.40;2099.20;;;;;;5053368;28;20379;-78
2022/03/05 02:13:32;;;;;;;;;;;102.40;2073.60;;;;;;5054818;28;19970;-78
2022/03/05 02:15:58;;;;;;;;;;;102.40;2073.60;;;;;;5053717;28;19959;-78
2022/03/05 02:18:24;;;;;;;;;;;77.60;2099.20;;;;;;5053102;28;19912;-78
2022/03/05 02:20:50;;;;;;;;;;;77.50;2124.80;;;;;;5054777;28;19931;-78
2022/03/05 02:23:16;;;;;;;;;;;77.70;2099.20;;;;;;5054744;28;19935;-78
2022/03/05 02:25:53;;;;;;;;;;;77.70;2099.20;;;;;;5053626;28;19905;-78
2022/03/05 02:28:20;;;;;;;;;;;102.40;2099.20;;;;;;5053373;28;19950;-78
2022/03/05 02:30:45;;;;;;;;;;;102.40;2048.00;;;;;;5053296;28;19972;-78
2022/03/05 02:33:11;;;;;;;;;;;102.40;2048.00;;;;;;5053771;28;19926;-84
2022/03/05 02:35:37;;;;;;;;;;;77.70;2073.60;;;;;;5052877;28;19905;-78
2022/03/05 02:38:02;;;;;;;;;;;77.40;2150.40;;;;;;5053794;28;19904;-79
2022/03/05 02:40:28;;;;;;;;;;;77.40;2201.60;;;;;;5053347;28;19905;-78
2022/03/05 02:42:53;;;;;;;;;;;77.40;2201.60;;;;;;5053107;28;19968;-80
2022/03/05 02:45:19;;;;;;;;;;;77.40;2201.60;;;;;;5053428;28;19904;-78
2022/03/05 02:47:45;;;;;;;;;;;77.40;2201.60;;;;;;5053259;28;19909;-78
2022/03/05 02:50:10;;;;;;;;;;;77.20;2201.60;;;;;;5053240;28;20021;-79
2022/03/05 02:52:39;;;;;;;;;;;76.90;2227.20;;;;;;5053124;28;20350;-78
2022/03/05 02:55:05;;;;;;;;;;;52.00;2227.20;;;;;;5054645;28;20282;-80
2022/03/05 02:57:31;;;;;;;;;;;51.80;2227.20;;;;;;5053793;28;19912;-78
2022/03/05 02:59:56;;;;;;;;;;;51.70;2227.20;;;;;;5052971;28;19904;-78
2022/03/05 03:02:22;;;;;;;;;;;51.70;2227.20;;;;;;5053478;28;19904;-80
2022/03/05 03:04:48;;;;;;;;;;;51.80;2227.20;;;;;;5052954;28;19955;-79
2022/03/05 03:07:13;;;;;;;;;;;51.80;2227.20;;;;;;5054467;28;19913;-78
2022/03/05 03:09:39;;;;;;;;;;;51.90;2227.20;;;;;;5054123;28;20381;-78
2022/03/05 03:12:05;;;;;;;;;;;51.90;2227.20;;;;;;5052144;28;19986;-78
2022/03/05 03:14:30;;;;;;;;;;;51.90;2227.20;;;;;;5054057;28;19951;-78
2022/03/05 03:16:56;;;;;;;;;;;51.80;2227.20;;;;;;5053307;28;19905;-79
2022/03/05 03:19:21;;;;;;;;;;;51.90;2227.20;;;;;;5052796;28;19958;-79
2022/03/05 03:21:47;;;;;;;;;;;51.80;2227.20;;;;;;5052671;28;20365;-78
2022/03/05 03:24:12;;;;;;;;;;;51.90;2227.20;;;;;;5053062;28;19928;-78
2022/03/05 03:26:38;;;;;;;;;;;52.00;2227.20;;;;;;5054140;28;20377;-79
2022/03/05 03:29:03;;;;;;;;;;;51.90;2227.20;;;;;;5052677;28;19905;-78
2022/03/05 03:31:29;;;;;;;;;;;51.80;2227.20;;;;;;5052674;28;19956;-79
2022/03/05 03:33:55;;;;;;;;;;;51.80;2227.20;;;;;;5053922;28;19909;-80
2022/03/05 03:36:20;;;;;;;;;;;51.70;2227.20;;;;;;5054075;28;19901;-78
2022/03/05 03:38:46;;;;;;;;;;;51.50;2227.20;;;;;;5054000;28;20366;-78
2022/03/05 03:41:11;;;;;;;;;;;51.50;2227.20;;;;;;5052825;28;19915;-78
2022/03/05 03:43:37;;;;;;;;;;;51.70;2227.20;;;;;;5053657;28;19909;-78
2022/03/05 03:46:02;;;;;;;;;;;51.80;2227.20;;;;;;5053735;28;19968;-79
2022/03/05 03:48:28;;;;;;;;;;;51.90;2227.20;;;;;;5051897;28;19905;-79
2022/03/05 03:50:54;;;;;;;;;;;51.80;2227.20;;;;;;5052525;28;20328;-78
2022/03/05 03:53:19;;;;;;;;;;;51.90;2227.20;;;;;;5054117;28;19951;-79
2022/03/05 03:55:45;;;;;;;;;;;51.90;2227.20;;;;;;5053650;28;20378;-77
2022/03/05 03:58:11;;;;;;;;;;;52.00;2227.20;;;;;;5053803;28;19958;-78
2022/03/05 04:00:36;;;;;;;;;;;52.10;2227.20;;;;;;5053344;28;20369;-78
2022/03/05 04:03:02;;;;;;;;;;;52.00;2227.20;;;;;;5053928;28;19904;-78
2022/03/05 04:05:28;;;;;;;;;;;51.90;2227.20;;;;;;5052120;28;19940;-78
2022/03/05 04:10:38;;;;;;;;;;;51.80;2227.20;;;;;;5053564;28;19966;-78
2022/03/05 04:13:03;;;;;;;;;;;51.80;2227.20;;;;;;5054445;28;19909;-78
2022/03/05 04:15:29;;;;;;;;;;;51.70;2227.20;;;;;;5055712;28;19960;-79
2022/03/05 04:17:54;;;;;;;;;;;51.70;2227.20;;;;;;5056929;28;19950;-78
2022/03/05 04:20:20;;;;;;;;;;;51.80;2227.20;;;;;;5057369;28;19912;-78
2022/03/05 04:22:46;;;;;;;;;;;51.90;2227.20;;;;;;5056096;28;19915;-78
2022/03/05 04:25:11;;;;;;;;;;;52.00;2227.20;;;;;;5055838;28;19905;-78
2022/03/05 04:27:37;;;;;;;;;;;52.00;2227.20;;;;;;5055744;28;19905;-79
2022/03/05 04:30:04;;;;;;;;;;;52.00;2227.20;;;;;;5056950;28;19905;-79
2022/03/05 04:32:29;;;;;;;;;;;51.80;2227.20;;;;;;5055901;28;20326;-79
2022/03/05 04:34:55;;;;;;;;;;;51.60;2227.20;;;;;;5056611;28;19972;-78
2022/03/05 04:37:21;;;;;;;;;;;51.60;2227.20;;;;;;5056916;28;19905;-78
2022/03/05 04:39:46;;;;;;;;;;;51.50;2227.20;;;;;;5055707;28;19960;-78
2022/03/05 04:42:12;;;;;;;;;;;51.60;2227.20;;;;;;5056692;28;19935;-78
2022/03/05 04:44:37;;;;;;;;;;;51.60;2227.20;;;;;;5054980;28;19923;-76
2022/03/05 04:47:03;;;;;;;;;;;51.60;2227.20;;;;;;5055618;28;19908;-78
2022/03/05 04:49:28;;;;;;;;;;;51.60;2227.20;;;;;;5054864;28;20338;-77
2022/03/05 04:51:54;;;;;;;;;;;51.70;2227.20;;;;;;5056559;28;19952;-78
2022/03/05 04:54:20;;;;;;;;;;;51.80;2227.20;;;;;;5056693;28;19905;-78
2022/03/05 04:56:45;;;;;;;;;;;51.80;2227.20;;;;;;5055256;28;19915;-78
2022/03/05 04:59:11;;;;;;;;;;;51.80;2227.20;;;;;;5054921;28;19926;-78
2022/03/05 05:01:36;;;;;;;;;;;51.80;2227.20;;;;;;5056036;28;19904;-79
2022/03/05 05:04:02;;;;;;;;;;;51.90;2227.20;;;;;;5055918;28;19917;-76
2022/03/05 05:06:28;;;;;;;;;;;51.90;2227.20;;;;;;5056103;28;19915;-76
2022/03/05 05:08:54;;;;;;;;;;;51.90;2227.20;;;;;;5054954;28;19952;-79
2022/03/05 05:11:19;;;;;;;;;;;51.90;2227.20;;;;;;5054420;28;19935;-78
2022/03/05 05:13:45;;;;;;;;;;;51.90;2227.20;;;;;;5054869;28;20354;-78
2022/03/05 05:16:10;;;;;;;;;;;52.00;2227.20;;;;;;5056195;28;19911;-78
2022/03/05 05:18:36;;;;;;;;;;;52.00;2227.20;;;;;;5054955;28;19912;-78
2022/03/05 05:21:02;;;;;;;;;;;52.00;2227.20;;;;;;5054633;28;19912;-78
2022/03/05 05:23:28;;;;;;;;;;;52.00;2227.20;;;;;;5054642;28;19959;-78
2022/03/05 05:25:53;;;;;;;;;;;51.80;2227.20;;;;;;5054760;28;19950;-78
2022/03/05 05:28:19;;;;;;;;;;;51.80;2227.20;;;;;;5054713;28;20351;-78
2022/03/05 05:30:45;;;;;;;;;;;51.50;2227.20;;;;;;5055430;28;19978;-79
2022/03/05 05:33:10;;;;;;;;;;;26.50;2201.60;;;;;;5055770;28;20410;-78
2022/03/05 05:35:36;;;;;;;;;;;26.20;2201.60;;;;;;5054491;28;19931;-78
2022/03/05 05:38:01;;;;;;;;;;;26.20;2201.60;;;;;;5055759;28;20274;-79
2022/03/05 05:40:27;;;;;;;;;;;26.40;2201.60;;;;;;5054842;28;19958;-78
2022/03/05 05:42:53;;;;;;;;;;;26.30;2201.60;;;;;;5055664;28;19920;-78
2022/03/05 05:45:18;;;;;;;;;;;26.20;2201.60;;;;;;5055599;28;19908;-79
2022/03/05 05:47:44;;;;;;;;;;;26.30;2201.60;;;;;;5055704;28;20362;-78
2022/03/05 05:50:09;;;;;;;;;;;26.40;2201.60;;;;;;5056271;28;20335;-78
2022/03/05 05:52:35;;;;;;;;;;;26.40;2201.60;;;;;;5055518;28;19908;-79
2022/03/05 05:55:01;;;;;;;;;;;26.20;2201.60;;;;;;5055409;28;19950;-79
2022/03/05 05:57:26;;;;;;;;;;;26.10;2201.60;;;;;;5055060;28;19944;-78
2022/03/05 05:59:52;;;;;;;;;;;26.00;2201.60;;;;;;5053673;28;19905;-79
2022/03/05 06:02:17;;;;;;;;;;;26.20;2201.60;;;;;;5055292;28;19905;-78
2022/03/05 06:04:43;;;;;;;;;;;26.10;2201.60;;;;;;5054987;28;19921;-78
2022/03/05 06:07:08;;;;;;;;;;;26.30;2201.60;;;;;;5055012;28;19905;-78
2022/03/05 06:09:34;;;;;;;;;;;26.30;2201.60;;;;;;5055372;28;19905;-79
2022/03/05 06:12:00;;;;;;;;;;;26.50;2201.60;;;;;;5053607;28;19944;-78
2022/03/05 06:14:25;;;;;;;;;;;26.20;2201.60;;;;;;5053836;28;19908;-79
2022/03/05 06:16:51;;;;;;;;;;;51.30;2227.20;;;;;;5055310;28;19995;-78
2022/03/05 06:19:16;;;;;;;;;;;51.30;2227.20;;;;;;5055161;28;19912;-78
2022/03/05 06:21:42;;;;;;;;;;;51.60;2227.20;;;;;;5054913;28;20358;-78
2022/03/05 06:24:08;;;;;;;;;;;51.60;2227.20;;;;;;5054828;28;19950;-79
2022/03/05 06:26:34;;;;;;;;;;;51.70;2227.20;;;;;;5054952;28;19905;-78
2022/03/05 06:28:59;;;;;;;;;;;51.90;2227.20;;;;;;5052677;28;20003;-78
2022/03/05 06:31:25;;;;;;;;;;;52.10;2227.20;;;;;;5054665;28;20012;-78
2022/03/05 06:33:51;;;;;;;;;;;76.90;2227.20;;;;;;5052734;28;19958;-78
2022/03/05 06:36:16;;;;;;;;;;;77.00;2227.20;;;;;;5053710;28;19905;-78
2022/03/05 06:38:42;;;;;;;;;;;77.10;2227.20;;;;;;5054462;28;19905;-77
2022/03/05 06:41:07;;;;;;;;;;;77.20;2227.20;;;;;;5054394;28;20392;-82
2022/03/05 06:43:33;;;;;;;;;;;77.30;2227.20;;;;;;5054808;28;19947;-79
2022/03/05 06:45:59;;;;;;;;;;;77.30;2227.20;;;;;;5054730;28;19909;-76
2022/03/05 06:48:24;;;;;;;;;;;77.40;2227.20;;;;;;5054531;28;19905;-78
2022/03/05 06:50:50;;;;;;;;;;;77.60;2227.20;;;;;;5052808;28;19919;-78
2022/03/05 06:53:15;;;;;;;;;;;77.60;2227.20;;;;;;5052954;28;19908;-78
2022/03/05 06:55:41;;;;;;;;;;;77.60;2227.20;;;;;;5054151;28;19958;-78
2022/03/05 06:58:06;;;;;;;;;;;77.50;2227.20;;;;;;5053105;28;20285;-78
2022/03/05 07:00:32;;;;;;;;;;;77.60;2227.20;;;;;;5052847;28;19931;-78
2022/03/05 07:02:58;;;;;;;;;;;77.50;2227.20;;;;;;5054112;28;19904;-79
2022/03/05 07:05:24;;;;;;;;;;;77.70;2227.20;;;;;;5041263;28;19926;-79
2022/03/05 07:07:49;;;;;;;;;;;77.50;2227.20;;;;;;5024361;28;19906;-80
2022/03/05 07:10:15;;;;;;;;;;;77.70;2227.20;;;;;;5024446;28;20210;-78
2022/03/05 07:12:40;;;;;;;;;;;102.40;2201.60;;;;;;5033373;28;19951;-80
2022/03/05 07:15:07;;;;;;;;;;;102.50;2201.60;;;;;;5043882;28;19909;-80
2022/03/05 07:17:33;;;;;;;;;;;102.60;2176.00;;;;;;5043165;28;19905;-81
2022/03/05 07:19:58;;;;;;;;;;;103.00;2150.40;;;;;;5035714;28;19905;-81
2022/03/05 07:22:24;;;;;;;;;;;103.00;2150.40;;;;;;5033994;28;19905;-79
2022/03/05 07:24:50;;;;;;;;;;;103.20;2124.80;;;;;;5033926;28;19959;-80
2022/03/05 07:27:15;;;;;;;;;;;103.10;2124.80;;;;;;5032962;28;20062;-79
2022/03/05 07:29:43;;;;;;;;;;;128.00;2099.20;;;;;;5032528;28;19956;-78
2022/03/05 07:32:10;;;;;;;;;;;128.10;2099.20;;;;;;5032805;28;19913;-79
2022/03/05 07:34:35;;;;;;;;;;;103.30;2073.60;;;;;;5034192;28;20147;-81
2022/03/05 07:37:01;;;;;;;;;;;128.10;2099.20;;;;;;5032750;28;20319;-79
2022/03/05 07:39:26;;;;;;;;;;;128.30;2099.20;;;;;;5038669;28;19909;-79
2022/03/05 07:41:52;;;;;;;;;;;128.40;2073.60;;;;;;5053644;28;19920;-78
2022/03/05 07:44:18;;;;;;;;;;;128.40;2048.00;;;;;;5053986;28;19950;-78
2022/03/05 07:46:43;;;;;;;;;;;128.40;2048.00;;;;;;5054493;28;20415;-79
2022/03/05 07:49:09;;;;;;;;;;;128.10;2073.60;;;;;;5056852;28;19951;-80
2022/03/05 07:51:35;;;;;;;;;;;128.30;2048.00;;;;;;5056798;28;19913;-79
2022/03/05 07:54:00;;;;;;;;;;;128.10;2048.00;;;;;;5056838;28;19993;-81
2022/03/05 07:56:26;;;;;;;;;;;128.50;2048.00;;;;;;5056743;28;19916;-81
2022/03/05 07:58:52;;;;;;;;;;;128.00;2073.60;;;;;;5056134;28;19908;-80
2022/03/05 08:01:18;;;;;;;;;;;128.40;2073.60;;;;;;5057576;28;19904;-78
2022/03/05 08:03:43;;;;;;;;;;;128.30;2048.00;;;;;;5057525;28;19904;-80
2022/03/05 08:06:09;;;;;;;;;;;128.40;2048.00;;;;;;5057313;28;20416;-83
2022/03/05 08:08:34;;;;;;;;;;;128.30;2048.00;;;;;;5056352;28;19992;-82
2022/03/05 08:11:00;;;;;;;;;;;128.20;2048.00;;;;;;5056008;28;19940;-80
2022/03/05 08:13:28;;;;;;;;;;;128.40;2073.60;;;;;;5057546;28;19909;-79
2022/03/05 08:15:54;;;;;;;;;;;128.60;2048.00;;;;;;5057461;28;20024;-76
2022/03/05 08:18:20;;;;;;;;;;;128.70;2022.40;;;;;;5056306;28;19905;-79
2022/03/05 08:20:46;;;;;;;;;;;128.50;1996.80;;;;;;5057543;28;19915;-82
2022/03/05 08:23:12;;;;;;;;;;;128.30;2048.00;;;;;;5056403;28;19944;-84
2022/03/05 08:25:37;;;;;;;;;;;128.30;2048.00;;;;;;5056284;28;19908;-84
2022/03/05 08:28:03;;;;;;;;;;;128.40;2048.00;;;;;;5056282;28;19905;-80
2022/03/05 08:30:28;;;;;;;;;;;128.30;2048.00;;;;;;5055880;28;20365;-78
2022/03/05 08:32:54;;;;;;;;;;;128.40;2048.00;;;;;;5057364;28;19905;-86
2022/03/05 08:35:21;;;;;;;;;;;128.70;2022.40;;;;;;5056315;28;19905;-82
2022/03/05 08:37:46;;;;;;;;;;;128.60;2022.40;;;;;;5055877;28;19913;-79
2022/03/05 08:40:13;;;;;;;;;;;128.70;2073.60;;;;;;5057067;28;19955;-77
2022/03/05 08:42:39;;;;;;;;;;;128.60;2073.60;;;;;;5055599;28;19939;-77
2022/03/05 08:45:05;;;;;;;;;;;153.60;2048.00;;;;;;5055221;28;19999;-84
2022/03/05 08:47:31;;;;;;;;;;;128.90;2022.40;;;;;;5055630;28;19932;-80
2022/03/05 08:49:57;;;;;;;;;;;128.90;2048.00;;;;;;5055899;28;19905;-79
2022/03/05 08:52:23;;;;;;;;;;;153.60;2022.40;;;;;;5055253;28;19919;-79
2022/03/05 08:54:48;;;;;;;;;;;153.70;2022.40;;;;;;5055547;28;19904;-89
2022/03/05 08:57:14;;;;;;;;;;;153.80;2022.40;;;;;;5055534;28;20050;-80
2022/03/05 08:59:40;;;;;;;;;;;153.80;1996.80;;;;;;5055317;28;20324;-84
2022/03/05 09:02:06;;;;;;;;;;;153.80;1971.20;;;;;;5055424;28;19916;-81
2022/03/05 09:04:32;;;;;;;;;;;153.80;1971.20;;;;;;5055374;28;19986;-86
2022/03/05 09:06:58;;;;;;;;;;;154.10;1971.20;;;;;;5055839;28;19904;-80
2022/03/05 09:09:24;;;;;;;;;;;154.10;1971.20;;;;;;5054662;28;19905;-84
2022/03/05 09:11:49;;;;;;;;;;;154.10;1996.80;;;;;;5055399;28;20465;-77
2022/03/05 09:14:15;;;;;;;;;;;154.20;1945.60;;;;;;5054826;28;19905;-80
2022/03/05 09:16:41;;;;;;;;;;;154.10;1920.00;;;;;;5055433;28;19988;-78
2022/03/05 09:19:07;;;;;;;;;;;154.20;1920.00;;;;;;5055327;28;19905;-79
2022/03/05 09:21:34;;;;;;;;;;;154.00;1920.00;;;;;;5041856;28;19909;-79
2022/03/05 09:24:00;;;;;;;;;;;154.00;1945.60;;;;;;5042458;28;19923;-79
2022/03/05 09:26:26;;;;;;;;;;;154.50;1894.40;;;;;;5038735;28;19917;-79
2022/03/05 09:28:52;;;;;;;;;;;154.20;1920.00;;;;;;5042935;28;19927;-77
2022/03/05 09:31:18;;;;;;;;;;;154.30;1920.00;;;;;;5040974;28;19913;-80
2022/03/05 09:33:43;;;;;;;;;;;154.40;1894.40;;;;;;5034386;28;20007;-78
2022/03/05 09:36:09;;;;;;;;;;;179.20;1868.80;;;;;;5034603;28;19991;-78
2022/03/05 09:38:35;;;;;;;;;;;179.50;1894.40;;;;;;5034899;28;19905;-79
2022/03/05 09:41:05;;;;;;;;;;;179.40;1843.20;;;;;;5034582;28;19913;-83
2022/03/05 09:43:31;;;;;;;;;;;179.80;1868.80;;;;;;5034328;28;19904;-81
2022/03/05 09:45:57;;;;;;;;;;;180.10;1868.80;;;;;;5034853;28;19905;-80
2022/03/05 09:48:23;;;;;;;;;;;179.90;1792.00;;;;;;5034522;28;20406;-80
2022/03/05 09:50:49;;;;;;;;;;;179.70;1817.60;;;;;;5034617;28;19920;-79
2022/03/05 09:53:16;;;;;;;;;;;179.80;1817.60;;;;;;5034655;28;19905;-80
2022/03/05 09:55:42;;;;;;;;;;;179.80;1843.20;;;;;;5034479;28;19905;-79
2022/03/05 09:58:07;;;;;;;;;;;180.10;1817.60;;;;;;5035731;28;19912;-78
2022/03/05 10:00:33;;;;;;;;;;;180.00;1792.00;;;;;;5034405;28;19947;-83
2022/03/05 10:02:59;;;;;;;;;;;204.80;1766.40;;;;;;5035438;28;19909;-80
2022/03/05 10:05:26;;;;;;;;;;;204.90;1740.80;;;;;;5034843;28;19924;-83
2022/03/05 10:08:24;;;;;;;;;;;204.80;1740.80;;;;;;5034315;28;19905;-81
2022/03/05 10:10:57;;;;;;;;;;;205.20;1766.40;;;;;;5033799;28;19956;-80
2022/03/05 10:13:24;;;;;;;;;;;205.20;1715.20;;;;;;5035634;28;20421;-80
2022/03/05 10:15:51;;;;;;;;;;;205.60;1689.60;;;;;;5034527;28;19905;-80
2022/03/05 10:18:17;;;;;;;;;;;230.50;1664.00;;;;;;5033713;28;19951;-80
2022/03/05 10:20:48;;;;;;;;;;;205.70;1664.00;;;;;;5034247;28;19905;-79
2022/03/05 10:23:14;;;;;;;;;;;205.50;1664.00;;;;;;5038627;28;20393;-81
2022/03/05 10:25:39;;;;;;;;;;;205.70;1664.00;;;;;;5042661;28;19905;-83
2022/03/05 10:28:06;;;;;;;;;;;230.40;1664.00;;;;;;5040832;28;19928;-81
2022/03/05 10:30:33;;;;;;;;;;;230.50;1638.40;;;;;;5035331;28;19948;-79
2022/03/05 10:32:59;;;;;;;;;;;230.60;1638.40;;;;;;5034897;28;19932;-82
2022/03/05 10:35:25;;;;;;;;;;;230.90;1612.80;;;;;;5034021;28;20350;-84
2022/03/05 10:37:53;;;;;;;;;;;231.00;1561.60;;;;;;5041479;28;19915;-80
2022/03/05 10:40:33;;;;;;;;;;;231.10;1561.60;;;;;;5041715;28;19913;-77
2022/03/05 10:43:06;;;;;;;;;;;256.10;1510.40;;;;;;5036958;28;19913;-79
2022/03/05 10:45:51;;;;;;;;;;;256.20;1510.40;;;;;;5033684;28;20363;-79
2022/03/05 10:48:41;;;;;;;;;;;256.50;1484.80;;;;;;5033927;28;19928;-79
2022/03/05 10:51:11;;;;;;;;;;;256.20;1536.00;;;;;;5041920;28;19944;-79
2022/03/05 10:53:36;;;;;;;;;;;231.30;1536.00;;;;;;5053365;28;19912;-83
2022/03/05 10:56:22;;;;;;;;;;;256.30;1510.40;;;;;;5053383;28;20316;-88
2022/03/05 10:58:59;;;;;;;;;;;231.10;1536.00;;;;;;5054585;28;19904;-87
2022/03/05 11:01:25;;;;;;;;;;;230.90;1561.60;;;;;;5053461;28;19943;-80
2022/03/05 11:03:54;;;;;;;;;;;231.00;1561.60;;;;;;5053288;28;19905;-86
2022/03/05 11:06:21;;;;;;;;;;;231.10;1536.00;;;;;;5053542;28;19908;-86
2022/03/05 11:08:47;;;;;;;;;;;231.30;1536.00;;;;;;5054397;28;19953;-81
2022/03/05 11:11:14;;;;;;;;;;;256.60;1510.40;;;;;;5052813;28;20370;-83
2022/03/05 11:13:40;;;;;;;;;;;256.10;1484.80;;;;;;5053373;28;19908;-87
2022/03/05 11:16:06;;;;;;;;;;;231.20;1510.40;;;;;;5054422;28;19904;-84
2022/03/05 11:18:31;;;;;;;;;;;230.90;1587.20;;;;;;5054271;28;19912;-84
2022/03/05 11:20:57;;;;;;;;;;;231.10;1587.20;;;;;;5053830;28;19905;-78
2022/03/05 11:23:23;;;;;;;;;;;256.30;1561.60;;;;;;5053088;28;20366;-81
2022/03/05 11:25:49;;;;;;;;;;;256.60;1510.40;;;;;;5054122;28;19912;-79
2022/03/05 11:28:18;;;;;;;;;;;256.10;1536.00;;;;;;5052808;28;19904;-78
2022/03/05 11:30:44;;;;;;;;;;;256.40;1484.80;;;;;;5052710;28;19946;-82
2022/03/05 11:33:19;;;;;;;;;;;256.70;1484.80;;;;;;5053781;28;20008;-78
2022/03/05 11:35:45;;;;;;;;;;;282.00;1484.80;;;;;;5040005;28;19912;-79
2022/03/05 11:38:29;;;;;;;;;;;281.80;1484.80;;;;;;5033123;28;19940;-80
2022/03/05 11:40:55;;;;;;;;;;;256.90;1459.20;;;;;;5035538;28;20380;-79
2022/03/05 11:43:24;;;;;;;;;;;256.40;1484.80;;;;;;5043008;28;19911;-79
2022/03/05 11:46:01;;;;;;;;;;;256.00;1484.80;;;;;;5044130;28;19905;-78
2022/03/05 11:48:28;;;;;;;;;;;231.00;1536.00;;;;;;5037230;28;20003;-78
2022/03/05 11:50:55;;;;;;;;;;;230.90;1536.00;;;;;;5047128;28;20293;-80
2022/03/05 11:53:21;;;;;;;;;;;231.00;1536.00;;;;;;5042845;28;19905;-77
2022/03/05 11:55:47;;;;;;;;;;;231.20;1536.00;;;;;;5041690;28;19912;-77
2022/03/05 11:58:12;;;;;;;;;;;231.20;1510.40;;;;;;5049161;28;20388;-78
2022/03/05 12:00:38;;;;;;;;;;;231.20;1484.80;;;;;;5053941;28;19904;-79
2022/03/05 12:03:05;;;;;;;;;;;231.20;1484.80;;;;;;5052294;28;19912;-77
2022/03/05 12:05:44;;;;;;;;;;;231.00;1536.00;;;;;;5052276;28;20019;-82
2022/03/05 12:08:21;;;;;;;;;;;230.80;1510.40;;;;;;5053639;28;19905;-79
2022/03/05 12:11:06;;;;;;;;;;;230.60;1561.60;;;;;;5052372;28;19912;-82
2022/03/05 12:13:31;;;;;;;;;;;230.50;1587.20;;;;;;5052475;28;19905;-81
2022/03/05 12:15:57;;;;;;;;;;;230.80;1587.20;;;;;;5052903;28;19905;-79
2022/03/05 12:18:23;;;;;;;;;;;230.80;1561.60;;;;;;5052384;28;19943;-86
2022/03/05 12:20:48;;;;;;;;;;;231.00;1561.60;;;;;;5052504;28;19905;-80
2022/03/05 12:23:18;;;;;;;;;;;256.20;1484.80;;;;;;5052254;28;19912;-79
2022/03/05 12:25:44;;;;;;;;;;;256.80;1459.20;;;;;;5052254;28;19951;-86
2022/03/05 12:28:15;;;;;;;;;;;281.90;1459.20;;;;;;5053647;28;19904;-79
2022/03/05 12:30:41;;;;;;;;;;;256.70;1433.60;;;;;;5052209;28;19913;-80
2022/03/05 12:33:07;;;;;;;;;;;256.80;1484.80;;;;;;5053154;28;19909;-79
2022/03/05 12:35:33;;;;;;;;;;;256.00;1484.80;;;;;;5056090;28;20428;-86
2022/03/05 12:37:58;;;;;;;;;;;231.00;1510.40;;;;;;5046985;28;19923;-81
2022/03/05 12:40:25;;;;;;;;;;;230.80;1510.40;;;;;;5044382;28;19992;-85
2022/03/05 12:42:51;;;;;;;;;;;231.10;1510.40;;;;;;5039930;28;20011;-84
2022/03/05 12:45:18;;;;;;;;;;;256.20;1484.80;;;;;;5044244;28;20266;-83
2022/03/05 12:47:44;;;;;;;;;;;256.90;1408.00;;;;;;5044301;28;20401;-85
2022/03/05 12:50:24;;;;;;;;;;;256.80;1408.00;;;;;;5046504;28;19970;-86
2022/03/05 12:52:57;;;;;;;;;;;282.10;1356.80;;;;;;5039962;28;19913;-85
2022/03/05 12:55:26;;;;;;;;;;;282.30;1331.20;;;;;;5052759;28;19905;-83
2022/03/05 12:57:51;;;;;;;;;;;282.40;1305.60;;;;;;5056808;28;19904;-85
2022/03/05 13:00:17;;;;;;;;;;;282.40;1305.60;;;;;;5055392;28;20289;-80
2022/03/05 13:02:42;;;;;;;;;;;281.90;1356.80;;;;;;5055421;28;19904;-86
2022/03/05 13:05:15;;;;;;;;;;;281.80;1331.20;;;;;;5055496;28;19916;-83
2022/03/05 13:07:41;;;;;;;;;;;281.80;1382.40;;;;;;5055517;28;19909;-85
2022/03/05 13:10:10;;;;;;;;;;;282.20;1382.40;;;;;;5055101;28;20293;-79
2022/03/05 13:12:36;;;;;;;;;;;282.10;1356.80;;;;;;5055257;28;20487;-79
2022/03/05 13:15:02;;;;;;;;;;;256.90;1382.40;;;;;;5055558;28;20011;-82
2022/03/05 13:17:28;;;;;;;;;;;256.80;1382.40;;;;;;5055401;28;19911;-84
2022/03/05 13:19:57;;;;;;;;;;;256.50;1408.00;;;;;;5054850;28;19904;-80
2022/03/05 13:22:27;;;;;;;;;;;256.70;1382.40;;;;;;5055117;28;19909;-83
2022/03/05 13:24:53;;;;;;;;;;;256.30;1382.40;;;;;;5055343;28;19915;-83
2022/03/05 13:27:26;;;;;;;;;;;256.20;1408.00;;;;;;5055038;28;20365;-84
2022/03/05 13:29:52;;;;;;;;;;;256.10;1433.60;;;;;;5049652;28;19913;-80
2022/03/05 13:32:18;;;;;;;;;;;256.50;1433.60;;;;;;5049383;28;20407;-84
2022/03/05 13:34:43;;;;;;;;;;;256.90;1408.00;;;;;;5038862;28;19909;-84
2022/03/05 13:37:12;;;;;;;;;;;281.70;1408.00;;;;;;5043515;28;19905;-85
2022/03/05 13:39:37;;;;;;;;;;;281.80;1408.00;;;;;;5043446;28;19927;-80
2022/03/05 13:42:14;;;;;;;;;;;281.90;1382.40;;;;;;5051744;28;20319;-79
2022/03/05 13:44:40;;;;;;;;;;;282.10;1382.40;;;;;;5055601;28;19908;-79